Time;durP1;ratioP1;P1;durP2;ratioP2;P2;SDS_P1;SDS_P2;PMS_P1;PMS_P2;Temp;Humidity;BMP_temperature;BMP_pressure;BME280_temperature;BME280_humidity;BME280_pressure;Samples;Min_cycle;Max_cycle;Signal;HPM_P1;HPM_P2
2021/08/18 00:00:49;;;;;;;4.07;1.60;;;16.70;99.90;;;;;;5155127;27;20425;-58
2021/08/18 00:03:17;;;;;;;3.95;2.25;;;16.60;99.90;;;;;;5156825;27;20417;-59
2021/08/18 00:05:44;;;;;;;5.05;1.80;;;16.40;99.90;;;;;;5160286;27;20420;-59
2021/08/18 00:08:12;;;;;;;3.53;1.53;;;16.40;99.90;;;;;;5159018;27;20405;-59
2021/08/18 00:10:42;;;;;;;4.05;1.60;;;16.30;99.90;;;;;;5158869;27;20451;-59
2021/08/18 00:13:10;;;;;;;5.53;1.80;;;16.60;99.90;;;;;;5158165;27;20419;-59
2021/08/18 00:15:37;;;;;;;4.32;1.98;;;16.70;99.90;;;;;;5157589;27;20425;-58
2021/08/18 00:18:06;;;;;;;4.47;1.95;;;16.80;99.90;;;;;;5159052;27;20417;-59
2021/08/18 00:20:33;;;;;;;3.35;1.50;;;16.60;99.90;;;;;;5158060;27;20854;-58
2021/08/18 00:23:01;;;;;;;3.53;1.40;;;16.60;99.90;;;;;;5159391;27;20828;-59
2021/08/18 00:25:28;;;;;;;4.95;1.90;;;16.70;99.90;;;;;;5159724;27;20420;-58
2021/08/18 00:27:55;;;;;;;3.27;1.87;;;16.80;99.90;;;;;;5159292;27;20439;-59
2021/08/18 00:30:22;;;;;;;3.85;1.60;;;16.80;99.90;;;;;;5159290;27;20705;-58
2021/08/18 00:32:49;;;;;;;3.50;1.50;;;16.70;99.90;;;;;;5159856;27;20420;-58
2021/08/18 00:35:17;;;;;;;3.13;1.40;;;16.70;99.90;;;;;;5159244;27;20442;-60
2021/08/18 00:37:45;;;;;;;3.80;1.40;;;16.60;99.90;;;;;;5159767;27;20421;-59
2021/08/18 00:40:13;;;;;;;5.97;2.53;;;16.50;99.90;;;;;;5158482;27;20426;-58
2021/08/18 00:42:41;;;;;;;4.20;1.70;;;16.40;99.90;;;;;;5158509;27;20405;-59
2021/08/18 00:45:10;;;;;;;4.05;1.80;;;16.30;99.90;;;;;;5159815;27;20427;-69
2021/08/18 00:47:46;;;;;;;4.30;1.67;;;16.30;99.90;;;;;;5158100;27;20411;-59
2021/08/18 00:50:16;;;;;;;3.90;1.50;;;16.50;99.90;;;;;;5158689;27;20420;-60
2021/08/18 00:52:44;;;;;;;3.90;2.00;;;16.50;99.90;;;;;;5158220;27;20409;-59
2021/08/18 00:55:13;;;;;;;5.93;2.00;;;16.50;99.90;;;;;;5158149;27;20421;-59
2021/08/18 00:57:40;;;;;;;3.85;1.50;;;16.40;99.90;;;;;;5158453;27;20424;-59
2021/08/18 01:00:10;;;;;;;4.43;1.83;;;16.50;99.90;;;;;;5158127;27;20455;-59
2021/08/18 01:02:37;;;;;;;5.03;1.73;;;16.60;99.90;;;;;;5158868;27;20419;-59
2021/08/18 01:05:07;;;;;;;4.07;1.55;;;16.90;99.90;;;;;;5159636;27;20427;-58
2021/08/18 01:07:34;;;;;;;4.00;1.60;;;16.90;99.90;;;;;;5158457;27;20843;-59
2021/08/18 01:10:05;;;;;;;4.28;1.85;;;16.90;99.90;;;;;;5158895;27;20421;-59
2021/08/18 01:12:33;;;;;;;3.53;1.87;;;16.70;99.90;;;;;;5158550;27;20503;-59
2021/08/18 01:15:00;;;;;;;4.15;1.80;;;16.50;99.90;;;;;;5159028;27;20696;-59
2021/08/18 01:17:32;;;;;;;5.60;1.80;;;16.60;99.90;;;;;;5158786;27;20419;-60
2021/08/18 01:19:59;;;;;;;4.20;2.00;;;16.50;99.90;;;;;;5157279;27;20424;-58
2021/08/18 01:22:26;;;;;;;4.63;1.90;;;16.40;99.90;;;;;;5158042;27;20420;-60
2021/08/18 01:24:53;;;;;;;5.30;2.50;;;16.20;99.90;;;;;;5157706;27;20723;-58
2021/08/18 01:27:21;;;;;;;4.85;2.05;;;16.40;99.90;;;;;;5157171;27;20448;-58
2021/08/18 01:29:50;;;;;;;5.47;2.30;;;16.50;99.90;;;;;;5157785;27;20823;-59
2021/08/18 01:32:17;;;;;;;3.60;2.20;;;16.50;99.90;;;;;;5157382;27;20417;-58
2021/08/18 01:34:44;;;;;;;3.53;1.80;;;16.50;99.90;;;;;;5159034;27;20513;-58
2021/08/18 01:37:10;;;;;;;3.90;2.00;;;16.40;99.90;;;;;;5158947;27;20413;-59
2021/08/18 01:39:38;;;;;;;4.35;2.47;;;16.30;99.90;;;;;;5157678;27;20896;-59
2021/08/18 01:42:05;;;;;;;6.03;2.47;;;16.20;99.90;;;;;;5157844;27;20413;-59
2021/08/18 01:44:33;;;;;;;4.43;2.25;;;16.00;99.90;;;;;;5157904;27;20413;-59
2021/08/18 01:47:01;;;;;;;6.55;1.98;;;15.90;99.90;;;;;;5156684;27;20424;-59
2021/08/18 01:49:28;;;;;;;5.13;2.50;;;15.90;99.90;;;;;;5158357;27;20716;-59
2021/08/18 01:51:56;;;;;;;6.22;2.70;;;15.90;99.90;;;;;;5157980;27;20507;-59
2021/08/18 01:54:22;;;;;;;4.82;1.80;;;15.90;99.90;;;;;;5157465;27;20421;-59
2021/08/18 01:56:49;;;;;;;5.65;2.78;;;15.80;99.90;;;;;;5158663;27;20419;-59
2021/08/18 01:59:16;;;;;;;5.20;2.50;;;15.80;99.90;;;;;;5157604;27;20429;-59
2021/08/18 02:01:43;;;;;;;4.72;2.33;;;15.80;99.90;;;;;;5159240;27;20786;-59
2021/08/18 02:04:11;;;;;;;5.18;2.20;;;15.80;99.90;;;;;;5158798;27;20674;-59
2021/08/18 02:06:38;;;;;;;5.20;2.40;;;15.90;99.90;;;;;;5157811;27;20417;-59
2021/08/18 02:09:05;;;;;;;4.88;1.70;;;16.00;99.90;;;;;;5157231;27;20516;-59
2021/08/18 02:11:32;;;;;;;4.57;1.85;;;16.00;99.90;;;;;;5158406;27;20416;-59
2021/08/18 02:13:59;;;;;;;4.38;2.10;;;16.00;99.90;;;;;;5153717;27;20509;-58
2021/08/18 02:16:26;;;;;;;4.80;1.98;;;15.90;99.90;;;;;;5153104;27;20720;-59
2021/08/18 02:18:53;;;;;;;5.28;2.28;;;16.10;99.90;;;;;;5158352;27;20521;-60
2021/08/18 02:21:21;;;;;;;5.85;2.40;;;16.00;99.90;;;;;;5156923;27;20421;-59
2021/08/18 02:23:48;;;;;;;4.97;2.50;;;16.00;99.90;;;;;;5157239;27;20512;-60
2021/08/18 02:26:15;;;;;;;3.90;2.23;;;16.10;99.90;;;;;;5156964;27;20716;-57
2021/08/18 02:28:41;;;;;;;3.30;1.70;;;16.30;99.90;;;;;;5156387;27;20431;-58
2021/08/18 02:31:09;;;;;;;5.25;1.90;;;16.30;99.90;;;;;;5157567;27;20413;-58
2021/08/18 02:33:37;;;;;;;3.80;1.70;;;16.50;99.90;;;;;;5156557;27;20466;-58
2021/08/18 02:36:04;;;;;;;3.47;1.80;;;16.40;99.90;;;;;;5157036;27;20832;-58
2021/08/18 02:38:32;;;;;;;4.30;1.60;;;16.30;99.90;;;;;;5156522;27;20515;-59
2021/08/18 02:40:59;;;;;;;3.80;1.90;;;16.20;99.90;;;;;;5155716;27;20607;-59
2021/08/18 02:43:26;;;;;;;4.88;1.90;;;16.20;99.90;;;;;;5156407;27;20500;-58
2021/08/18 02:45:53;;;;;;;3.67;1.70;;;16.20;99.90;;;;;;5155571;27;20427;-58
2021/08/18 02:48:20;;;;;;;4.88;2.00;;;16.00;99.90;;;;;;5155933;27;20440;-58
2021/08/18 02:50:47;;;;;;;4.77;1.77;;;15.80;99.90;;;;;;5156916;27;20420;-59
2021/08/18 02:53:14;;;;;;;4.50;2.13;;;15.80;99.90;;;;;;5154567;27;20735;-58
2021/08/18 02:55:42;;;;;;;3.80;2.00;;;15.80;99.90;;;;;;5154576;27;20497;-59
2021/08/18 02:58:09;;;;;;;3.20;1.80;;;15.90;99.90;;;;;;5155539;27;20520;-58
2021/08/18 03:00:36;;;;;;;4.50;1.88;;;15.90;99.90;;;;;;5155391;27;20841;-59
2021/08/18 03:03:02;;;;;;;5.13;2.00;;;16.00;99.90;;;;;;5155421;27;20419;-58
2021/08/18 03:05:30;;;;;;;4.15;1.83;;;15.90;99.90;;;;;;5156208;27;20714;-58
2021/08/18 03:07:56;;;;;;;3.30;1.70;;;15.90;99.90;;;;;;5156318;27;20790;-58
2021/08/18 03:10:24;;;;;;;3.53;1.70;;;15.80;99.90;;;;;;5155051;27;20421;-58
2021/08/18 03:12:53;;;;;;;4.70;1.58;;;15.90;99.90;;;;;;5155690;27;20421;-58
2021/08/18 03:15:20;;;;;;;5.30;1.80;;;16.00;99.90;;;;;;5155242;27;20424;-58
2021/08/18 03:17:47;;;;;;;3.80;1.40;;;15.90;99.90;;;;;;5156730;27;20415;-59
2021/08/18 03:20:14;;;;;;;2.90;1.50;;;16.10;99.90;;;;;;5156526;27;20825;-58
2021/08/18 03:22:40;;;;;;;3.72;1.63;;;16.20;99.90;;;;;;5155684;27;20424;-58
2021/08/18 03:25:08;;;;;;;3.03;1.60;;;16.20;99.90;;;;;;5156769;27;20519;-58
2021/08/18 03:27:36;;;;;;;4.88;1.67;;;16.10;99.90;;;;;;5155559;27;20820;-58
2021/08/18 03:30:05;;;;;;;2.10;1.40;;;16.10;99.90;;;;;;5156670;27;20555;-58
2021/08/18 03:32:32;;;;;;;3.60;1.30;;;15.90;99.90;;;;;;5156380;27;20495;-58
2021/08/18 03:34:59;;;;;;;4.47;1.60;;;15.90;99.90;;;;;;5155945;27;20442;-58
2021/08/18 03:37:26;;;;;;;3.17;1.40;;;15.90;99.90;;;;;;5155121;27;20859;-58
2021/08/18 03:39:53;;;;;;;3.40;1.60;;;16.10;99.90;;;;;;5154088;27;20728;-56
2021/08/18 03:42:21;;;;;;;3.38;1.42;;;16.10;99.90;;;;;;5152628;27;20420;-58
2021/08/18 03:44:48;;;;;;;2.73;1.50;;;16.00;99.90;;;;;;5154092;27;20692;-58
2021/08/18 03:47:16;;;;;;;3.17;1.50;;;16.20;99.90;;;;;;5153638;27;20687;-58
2021/08/18 03:49:43;;;;;;;3.70;1.55;;;16.20;99.90;;;;;;5153955;27;20423;-58
2021/08/18 03:52:10;;;;;;;4.03;1.80;;;16.40;99.90;;;;;;5154793;27;20415;-58
2021/08/18 03:54:37;;;;;;;2.55;1.30;;;16.40;99.90;;;;;;5154998;27;20519;-58
2021/08/18 03:57:04;;;;;;;2.97;1.40;;;16.20;99.90;;;;;;5155330;27;20419;-58
2021/08/18 03:59:31;;;;;;;3.92;1.50;;;16.10;99.90;;;;;;5155473;27;20750;-58
2021/08/18 04:01:58;;;;;;;5.18;1.67;;;16.00;99.90;;;;;;5155796;27;20413;-58
2021/08/18 04:04:26;;;;;;;4.43;1.50;;;15.90;99.90;;;;;;5156236;27;20424;-58
2021/08/18 04:06:53;;;;;;;2.70;1.40;;;15.90;99.90;;;;;;5155164;27;20491;-58
2021/08/18 04:09:20;;;;;;;2.50;1.70;;;15.90;99.90;;;;;;5155318;27;20421;-58
2021/08/18 04:11:46;;;;;;;2.70;1.65;;;16.00;99.90;;;;;;5155520;27;20417;-58
2021/08/18 04:14:13;;;;;;;3.67;1.88;;;16.00;99.90;;;;;;5156429;27;20417;-58
2021/08/18 04:16:40;;;;;;;3.88;1.55;;;15.90;99.90;;;;;;5156736;27;20700;-58
2021/08/18 04:19:07;;;;;;;2.90;1.30;;;15.90;99.90;;;;;;5155482;27;20439;-59
2021/08/18 04:21:36;;;;;;;3.30;1.30;;;15.90;99.90;;;;;;5155722;27;20424;-58
2021/08/18 04:24:03;;;;;;;3.40;1.40;;;16.00;99.90;;;;;;5155307;27;20425;-58
2021/08/18 04:26:30;;;;;;;2.60;1.40;;;16.00;99.90;;;;;;5155821;27;20468;-58
2021/08/18 04:28:56;;;;;;;2.90;1.20;;;16.10;99.90;;;;;;5154520;27;20418;-58
2021/08/18 04:31:23;;;;;;;2.60;1.10;;;16.30;99.90;;;;;;5155558;27;20419;-58
2021/08/18 04:33:50;;;;;;;3.25;1.48;;;16.40;99.90;;;;;;5154379;27;20411;-58
2021/08/18 04:36:17;;;;;;;3.30;1.35;;;16.40;99.90;;;;;;5153586;27;20416;-58
2021/08/18 04:38:45;;;;;;;3.85;1.20;;;16.40;99.90;;;;;;5154747;27;20505;-58
2021/08/18 04:41:12;;;;;;;2.90;1.30;;;16.40;99.90;;;;;;5154946;27;20500;-56
2021/08/18 04:43:39;;;;;;;2.45;1.30;;;16.40;99.90;;;;;;5154866;27;20417;-58
2021/08/18 04:46:06;;;;;;;2.63;1.38;;;16.20;99.90;;;;;;5137657;27;20936;-58
2021/08/18 04:48:33;;;;;;;2.13;1.10;;;16.20;99.90;;;;;;5134641;27;20418;-58
2021/08/18 04:51:02;;;;;;;4.00;1.30;;;16.20;99.90;;;;;;5154104;27;20423;-59
2021/08/18 04:53:29;;;;;;;3.65;1.10;;;16.20;99.90;;;;;;5159963;27;20420;-57
2021/08/18 04:55:57;;;;;;;2.20;1.20;;;16.20;99.90;;;;;;5159805;27;20452;-57
2021/08/18 04:58:24;;;;;;;3.10;1.00;;;16.20;99.90;;;;;;5159700;27;20413;-57
2021/08/18 05:00:51;;;;;;;4.03;1.20;;;16.20;99.90;;;;;;5159890;27;20507;-58
2021/08/18 05:03:19;;;;;;;2.80;1.20;;;16.30;99.90;;;;;;5158851;27;20419;-59
2021/08/18 05:05:46;;;;;;;2.75;1.10;;;16.40;99.90;;;;;;5158954;27;20884;-57
2021/08/18 05:08:12;;;;;;;1.80;0.90;;;16.60;99.90;;;;;;5159572;27;20448;-57
2021/08/18 05:10:39;;;;;;;2.35;1.00;;;16.60;99.90;;;;;;5159420;27;20853;-57
2021/08/18 05:13:08;;;;;;;1.92;1.10;;;16.60;99.90;;;;;;5159314;27;20423;-56
2021/08/18 05:15:35;;;;;;;1.60;0.90;;;16.50;99.90;;;;;;5159386;27;20448;-56
2021/08/18 05:18:02;;;;;;;2.50;1.10;;;16.50;99.90;;;;;;5159453;27;20711;-56
2021/08/18 05:20:29;;;;;;;1.80;1.00;;;16.70;99.90;;;;;;5158433;27;20520;-56
2021/08/18 05:22:56;;;;;;;1.85;0.90;;;16.70;99.90;;;;;;5158968;27;20412;-55
2021/08/18 05:25:22;;;;;;;1.98;0.88;;;17.10;99.90;;;;;;5159174;27;20413;-53
2021/08/18 05:27:50;;;;;;;1.77;1.10;;;17.10;99.90;;;;;;5158523;27;20483;-56
2021/08/18 05:30:18;;;;;;;1.92;0.90;;;17.00;99.90;;;;;;5158738;27;20416;-56
2021/08/18 05:32:45;;;;;;;1.60;0.95;;;17.00;99.90;;;;;;5158861;27;20417;-57
2021/08/18 05:35:14;;;;;;;2.10;1.00;;;17.00;99.90;;;;;;5158452;27;20424;-56
2021/08/18 05:37:41;;;;;;;1.70;0.90;;;16.90;99.90;;;;;;5159210;27;20444;-56
2021/08/18 05:40:11;;;;;;;1.50;0.90;;;16.90;99.90;;;;;;5157441;27;20836;-56
2021/08/18 05:42:38;;;;;;;1.83;0.80;;;17.10;99.90;;;;;;5157961;27;20841;-55
2021/08/18 05:45:07;;;;;;;1.20;0.70;;;17.00;99.90;;;;;;5158943;27;20427;-55
2021/08/18 05:47:38;;;;;;;1.30;0.80;;;17.20;99.90;;;;;;5157963;27;20448;-56
2021/08/18 05:50:06;;;;;;;1.63;0.90;;;17.20;99.90;;;;;;5158334;27;20420;-56
2021/08/18 05:52:33;;;;;;;1.20;0.80;;;17.00;99.90;;;;;;5157534;27;20416;-54
2021/08/18 05:55:02;;;;;;;2.13;0.70;;;17.20;99.90;;;;;;5157284;27;20990;-57
2021/08/18 05:57:30;;;;;;;1.80;0.80;;;17.10;99.90;;;;;;5157186;27;20417;-56
2021/08/18 05:59:57;;;;;;;1.50;0.70;;;17.10;99.90;;;;;;5156914;27;20435;-55
2021/08/18 06:02:24;;;;;;;1.20;0.70;;;17.10;99.90;;;;;;5156719;27;20856;-55
2021/08/18 06:04:52;;;;;;;2.53;0.70;;;16.90;99.90;;;;;;5155941;27;20420;-55
2021/08/18 06:07:19;;;;;;;2.50;1.00;;;17.10;99.90;;;;;;5155511;27;20528;-56
2021/08/18 06:09:46;;;;;;;1.73;1.00;;;17.00;99.90;;;;;;5155830;27;20417;-56
2021/08/18 06:12:13;;;;;;;1.42;0.90;;;17.00;99.90;;;;;;5156544;27;20419;-54
2021/08/18 06:14:41;;;;;;;1.73;0.80;;;17.00;99.90;;;;;;5155840;27;20828;-56
2021/08/18 06:17:08;;;;;;;2.20;0.90;;;16.90;99.90;;;;;;5152989;27;20412;-57
2021/08/18 06:19:35;;;;;;;1.50;0.90;;;16.80;99.90;;;;;;5154921;27;20870;-56
2021/08/18 06:22:04;;;;;;;1.60;0.80;;;16.80;99.90;;;;;;5156823;27;20439;-56
2021/08/18 06:24:40;;;;;;;1.48;0.80;;;16.70;99.90;;;;;;5156525;27;20519;-57
2021/08/18 06:27:08;;;;;;;1.50;0.80;;;16.80;99.90;;;;;;5156940;27;20418;-57
2021/08/18 06:29:35;;;;;;;1.48;0.80;;;16.80;99.90;;;;;;5155792;27;20842;-58
2021/08/18 06:32:02;;;;;;;1.70;0.80;;;16.90;99.90;;;;;;5155623;27;20437;-58
2021/08/18 06:34:29;;;;;;;1.20;0.70;;;16.80;99.90;;;;;;5154535;27;20435;-58
2021/08/18 06:37:01;;;;;;;1.52;0.90;;;16.80;99.90;;;;;;5153828;27;20486;-57
2021/08/18 06:39:30;;;;;;;2.35;0.80;;;16.80;99.90;;;;;;5152504;27;20520;-58
2021/08/18 06:41:58;;;;;;;1.60;0.90;;;16.90;99.90;;;;;;5155325;27;20413;-56
2021/08/18 06:44:25;;;;;;;1.63;0.90;;;16.80;99.90;;;;;;5155403;27;20416;-56
2021/08/18 06:46:51;;;;;;;1.40;0.90;;;17.00;99.90;;;;;;5154921;27;20455;-57
2021/08/18 06:49:19;;;;;;;1.35;0.80;;;17.10;99.90;;;;;;5157199;27;20424;-58
2021/08/18 06:51:46;;;;;;;1.88;0.90;;;17.10;99.90;;;;;;5156436;27;20413;-58
2021/08/18 06:54:13;;;;;;;1.40;0.80;;;17.10;99.90;;;;;;5156288;27;20427;-59
2021/08/18 06:56:41;;;;;;;1.20;0.80;;;17.20;99.90;;;;;;5155295;27;20435;-59
2021/08/18 06:59:08;;;;;;;1.40;0.80;;;17.20;99.90;;;;;;5155923;27;20420;-57
2021/08/18 07:01:35;;;;;;;1.70;0.80;;;17.20;99.90;;;;;;5156093;27;20415;-57
2021/08/18 07:04:05;;;;;;;1.90;0.70;;;17.30;99.90;;;;;;5156494;27;20420;-58
2021/08/18 07:06:32;;;;;;;1.30;0.80;;;17.70;99.90;;;;;;5155276;27;20424;-59
2021/08/18 07:08:59;;;;;;;1.23;0.80;;;18.00;99.90;;;;;;5153654;27;20425;-58
2021/08/18 07:11:26;;;;;;;1.40;0.80;;;17.90;99.90;;;;;;5155425;27;20504;-58
2021/08/18 07:13:58;;;;;;;1.30;0.70;;;17.90;99.90;;;;;;5155182;27;20417;-57
2021/08/18 07:16:25;;;;;;;1.27;0.60;;;18.00;99.90;;;;;;5154040;27;20982;-58
2021/08/18 07:18:52;;;;;;;1.60;0.70;;;18.10;99.90;;;;;;5153766;27;20436;-57
2021/08/18 07:21:20;;;;;;;1.10;0.63;;;18.10;99.90;;;;;;5153647;27;20579;-58
2021/08/18 07:23:47;;;;;;;1.10;0.60;;;18.20;99.90;;;;;;5152024;27;20405;-60
2021/08/18 07:26:14;;;;;;;1.00;0.63;;;18.20;99.90;;;;;;5152211;27;20505;-59
2021/08/18 07:28:41;;;;;;;1.10;0.70;;;18.20;99.90;;;;;;5151834;27;20408;-59
2021/08/18 07:31:09;;;;;;;2.00;0.60;;;18.30;99.90;;;;;;5153096;27;20405;-59
2021/08/18 07:33:36;;;;;;;6.70;1.20;;;18.20;99.90;;;;;;5153638;27;20786;-59
2021/08/18 07:36:03;;;;;;;3.63;0.65;;;18.50;99.90;;;;;;5153634;27;20852;-59
2021/08/18 07:38:31;;;;;;;2.60;0.73;;;18.70;99.90;;;;;;5154770;27;20831;-59
2021/08/18 07:40:57;;;;;;;1.10;0.50;;;18.80;99.90;;;;;;5155227;27;20854;-59
2021/08/18 07:43:24;;;;;;;1.40;0.55;;;18.80;99.90;;;;;;5152623;27;20416;-59
2021/08/18 07:45:51;;;;;;;4.00;0.60;;;18.80;99.90;;;;;;5151289;27;20425;-58
2021/08/18 07:48:20;;;;;;;1.40;0.50;;;18.80;99.90;;;;;;5151087;27;20413;-57
2021/08/18 07:50:47;;;;;;;0.80;0.40;;;19.00;99.90;;;;;;5150903;27;20596;-57
2021/08/18 07:53:14;;;;;;;0.88;0.40;;;18.70;99.90;;;;;;5150360;27;20448;-58
2021/08/18 07:55:41;;;;;;;0.75;0.40;;;18.60;99.90;;;;;;5151060;27;20442;-58
2021/08/18 07:58:08;;;;;;;2.90;0.70;;;18.40;99.90;;;;;;5150907;27;20415;-58
2021/08/18 08:00:38;;;;;;;0.90;0.40;;;18.60;99.90;;;;;;5152472;27;20515;-55
2021/08/18 08:03:05;;;;;;;0.75;0.40;;;18.70;99.90;;;;;;5153484;27;20413;-58
2021/08/18 08:05:33;;;;;;;0.70;0.30;;;19.00;99.90;;;;;;5152948;27;20923;-58
2021/08/18 08:08:00;;;;;;;1.10;0.40;;;19.20;99.90;;;;;;5153733;27;20412;-57
2021/08/18 08:10:28;;;;;;;0.60;0.30;;;19.40;99.90;;;;;;5154576;27;20421;-58
2021/08/18 08:12:55;;;;;;;0.50;0.30;;;19.70;99.90;;;;;;5155897;27;20825;-58
2021/08/18 08:15:25;;;;;;;0.52;0.30;;;19.80;99.90;;;;;;5156143;27;20716;-59
2021/08/18 08:17:52;;;;;;;0.60;0.30;;;19.90;99.90;;;;;;5155041;27;20413;-54
2021/08/18 08:20:19;;;;;;;1.40;0.30;;;19.80;99.90;;;;;;5153220;27;20431;-59
2021/08/18 08:22:47;;;;;;;0.80;0.30;;;19.70;99.90;;;;;;5154017;27;20562;-58
2021/08/18 08:25:14;;;;;;;0.50;0.20;;;19.70;99.90;;;;;;5156667;27;20782;-59
2021/08/18 08:27:41;;;;;;;1.00;0.30;;;19.70;99.90;;;;;;5158071;27;20507;-55
2021/08/18 08:30:08;;;;;;;0.50;0.20;;;19.50;99.90;;;;;;5157989;27;20574;-56
2021/08/18 08:32:39;;;;;;;0.40;0.20;;;19.50;99.90;;;;;;5156731;27;20416;-57
2021/08/18 08:35:07;;;;;;;0.50;0.20;;;19.50;99.90;;;;;;5157533;27;20421;-57
2021/08/18 08:37:34;;;;;;;0.60;0.30;;;19.60;99.90;;;;;;5158301;27;20504;-57
2021/08/18 08:40:03;;;;;;;0.50;0.20;;;19.50;99.90;;;;;;5157457;27;20870;-56
2021/08/18 08:42:32;;;;;;;0.40;0.20;;;19.40;99.90;;;;;;5156906;27;20416;-57
2021/08/18 08:45:02;;;;;;;0.50;0.20;;;19.40;99.90;;;;;;5157858;27;20429;-58
2021/08/18 08:47:29;;;;;;;0.40;0.20;;;19.20;99.90;;;;;;5157243;27;20469;-57
2021/08/18 08:49:57;;;;;;;0.50;0.20;;;19.30;99.90;;;;;;5157948;27;20413;-58
2021/08/18 08:52:27;;;;;;;0.40;0.20;;;19.30;99.90;;;;;;5156798;27;20415;-58
2021/08/18 08:54:54;;;;;;;0.40;0.20;;;19.20;99.90;;;;;;5158430;27;20427;-58
2021/08/18 08:57:22;;;;;;;0.80;0.20;;;19.20;99.90;;;;;;5158581;27;20409;-58
2021/08/18 08:59:49;;;;;;;0.40;0.20;;;19.40;99.90;;;;;;5156732;27;20416;-58
2021/08/18 09:02:16;;;;;;;0.50;0.20;;;19.50;99.90;;;;;;5157023;27;20408;-58
2021/08/18 09:04:45;;;;;;;0.45;0.20;;;19.80;99.90;;;;;;5156537;27;20816;-58
2021/08/18 09:07:13;;;;;;;0.40;0.20;;;20.10;99.90;;;;;;5155594;27;20846;-58
2021/08/18 09:09:43;;;;;;;0.40;0.20;;;20.10;99.90;;;;;;5155657;27;20420;-58
2021/08/18 09:12:12;;;;;;;0.40;0.20;;;20.20;99.90;;;;;;5156510;27;20819;-59
2021/08/18 09:14:44;;;;;;;0.50;0.20;;;19.90;99.90;;;;;;5157435;27;20415;-58
2021/08/18 09:17:31;;;;;;;0.47;0.20;;;19.60;99.90;;;;;;5155442;27;20515;-59
2021/08/18 09:20:01;;;;;;;0.40;0.20;;;19.30;99.90;;;;;;5157356;27;20750;-59
2021/08/18 09:22:28;;;;;;;0.32;0.20;;;19.50;99.90;;;;;;5157803;27;20520;-59
2021/08/18 09:25:09;;;;;;;0.40;0.20;;;19.50;99.90;;;;;;5156783;27;20442;-59
2021/08/18 09:27:36;;;;;;;0.50;0.20;;;19.30;99.90;;;;;;5158407;27;20416;-59
2021/08/18 09:30:06;;;;;;;0.40;0.20;;;19.50;99.90;;;;;;5156264;27;20413;-59
2021/08/18 09:32:36;;;;;;;0.40;0.20;;;19.30;99.90;;;;;;5156550;27;20491;-59
2021/08/18 09:35:07;;;;;;;0.40;0.20;;;19.30;99.90;;;;;;5154818;27;20483;-59
2021/08/18 09:37:36;;;;;;;1.88;1.25;;;19.10;99.90;;;;;;5154065;27;20413;-59
2021/08/18 09:40:16;;;;;;;0.90;0.30;;;19.30;99.90;;;;;;5156895;27;20431;-60
2021/08/18 09:42:43;;;;;;;0.40;0.20;;;19.60;99.90;;;;;;5156917;27;20579;-58
2021/08/18 09:45:17;;;;;;;0.30;0.20;;;19.80;99.90;;;;;;5155034;27;20523;-59
2021/08/18 09:48:05;;;;;;;4.55;4.15;;;19.90;99.90;;;;;;5155450;27;20441;-59
2021/08/18 09:50:44;;;;;;;0.80;0.40;;;20.40;99.90;;;;;;5157403;27;20419;-59
2021/08/18 09:53:13;;;;;;;0.50;0.20;;;20.40;99.90;;;;;;5157792;27;20515;-59
2021/08/18 09:55:48;;;;;;;0.40;0.10;;;20.60;99.90;;;;;;5156492;27;20427;-59
2021/08/18 09:58:20;;;;;;;0.60;0.10;;;20.90;99.90;;;;;;5155014;27;20820;-59
2021/08/18 10:00:49;;;;;;;0.30;0.10;;;20.90;99.90;;;;;;5154742;27;20429;-59
2021/08/18 10:03:16;;;;;;;0.30;0.10;;;20.90;99.90;;;;;;5154371;27;20401;-57
2021/08/18 10:05:43;;;;;;;0.40;0.20;;;21.00;99.90;;;;;;5152069;27;20432;-59
2021/08/18 10:08:10;;;;;;;0.40;0.20;;;21.10;99.90;;;;;;5153672;27;20848;-59
2021/08/18 10:10:42;;;;;;;0.30;0.10;;;21.40;99.90;;;;;;5154819;27;20724;-63
2021/08/18 10:13:11;;;;;;;0.30;0.10;;;21.70;99.90;;;;;;5155620;27;20412;-66
2021/08/18 10:15:39;;;;;;;0.30;0.10;;;22.10;99.90;;;;;;5156119;27;20427;-65
2021/08/18 10:18:09;;;;;;;0.50;0.20;;;21.70;99.90;;;;;;5157703;27;20470;-65
2021/08/18 10:20:38;;;;;;;0.30;0.15;;;21.30;99.90;;;;;;5156904;27;20811;-65
2021/08/18 10:23:07;;;;;;;0.40;0.20;;;21.20;99.90;;;;;;5156955;27;20404;-64
2021/08/18 10:25:45;;;;;;;0.40;0.20;;;21.20;99.90;;;;;;5155484;27;20428;-64
2021/08/18 10:28:11;;;;;;;0.40;0.20;;;21.20;99.90;;;;;;5155116;27;20491;-66
2021/08/18 10:30:50;;;;;;;0.40;0.10;;;21.10;99.90;;;;;;5154889;27;20423;-64
2021/08/18 10:33:54;;;;;;;0.50;0.20;;;21.00;99.90;;;;;;5156112;27;20681;-65
2021/08/18 10:37:02;;;;;;;0.50;0.20;;;21.00;99.90;;;;;;5156042;27;20520;-65
2021/08/18 10:39:37;;;;;;;0.40;0.20;;;21.20;99.90;;;;;;5155147;27;20417;-65
2021/08/18 10:42:06;;;;;;;0.75;0.20;;;21.20;99.90;;;;;;5154928;27;20846;-65
2021/08/18 10:44:42;;;;;;;0.40;0.20;;;21.20;99.90;;;;;;5156191;27;20421;-65
2021/08/18 10:47:17;;;;;;;0.40;0.20;;;21.40;99.90;;;;;;5159446;27;20414;-64
2021/08/18 10:49:45;;;;;;;0.40;0.20;;;21.60;99.90;;;;;;5176709;27;20419;-64
2021/08/18 10:52:54;;;;;;;0.40;0.20;;;21.40;99.90;;;;;;5175707;27;20431;-65
2021/08/18 10:55:35;;;;;;;0.40;0.20;;;21.90;99.90;;;;;;5177940;27;20419;-65
2021/08/18 10:58:07;;;;;;;0.90;0.20;;;22.70;99.90;;;;;;5176854;27;20426;-66
2021/08/18 11:00:36;;;;;;;0.50;0.20;;;23.00;99.90;;;;;;5176341;27;20561;-64
2021/08/18 11:03:05;;;;;;;0.40;0.20;;;22.90;99.90;;;;;;5177934;27;20695;-65
2021/08/18 11:05:49;;;;;;;0.50;0.20;;;22.80;99.90;;;;;;5176468;27;20695;-64
2021/08/18 11:08:20;;;;;;;0.40;0.20;;;22.40;99.90;;;;;;5175038;27;20827;-63
2021/08/18 11:11:26;;;;;;;0.60;0.30;;;21.80;99.90;;;;;;5166367;27;20428;-65
2021/08/18 11:14:07;;;;;;;0.60;0.30;;;21.60;99.90;;;;;;5152424;27;20439;-64
2021/08/18 11:16:34;;;;;;;0.50;0.30;;;21.30;99.90;;;;;;5153430;27;20408;-64
2021/08/18 11:19:02;;;;;;;0.57;0.30;;;21.10;99.90;;;;;;5152160;27;20417;-64
2021/08/18 11:21:31;;;;;;;0.50;0.30;;;20.90;99.90;;;;;;5152039;27;20743;-64
2021/08/18 11:24:01;;;;;;;0.70;0.30;;;20.90;99.90;;;;;;5139669;27;20434;-64
2021/08/18 11:26:32;;;;;;;0.50;0.30;;;20.90;99.90;;;;;;5133638;27;20420;-64
2021/08/18 11:29:05;;;;;;;0.50;0.30;;;21.00;99.90;;;;;;5131566;27;20422;-63
2021/08/18 11:31:38;;;;;;;0.50;0.30;;;21.00;99.90;;;;;;5144833;27;20740;-64
2021/08/18 11:34:17;;;;;;;0.50;0.30;;;20.90;99.90;;;;;;5154209;27;20424;-63
2021/08/18 11:36:44;;;;;;;0.50;0.30;;;21.10;99.90;;;;;;5154065;27;20870;-63
2021/08/18 11:39:13;;;;;;;0.40;0.20;;;21.10;99.90;;;;;;5152146;27;20428;-64
2021/08/18 11:41:42;;;;;;;0.40;0.20;;;21.60;99.90;;;;;;5154971;27;20425;-64
2021/08/18 11:44:15;;;;;;;0.40;0.30;;;22.10;99.90;;;;;;5153789;27;20439;-65
2021/08/18 11:46:42;;;;;;;0.40;0.20;;;22.60;99.90;;;;;;5154359;27;20438;-65
2021/08/18 11:49:10;;;;;;;0.50;0.30;;;22.70;99.90;;;;;;5150657;27;20427;-64
2021/08/18 11:51:54;;;;;;;0.40;0.30;;;22.70;99.90;;;;;;5151739;27;20848;-63
2021/08/18 11:54:26;;;;;;;0.50;0.30;;;22.70;99.90;;;;;;5127214;27;20485;-65
2021/08/18 11:57:01;;;;;;;0.40;0.30;;;22.70;99.90;;;;;;5128223;27;20713;-65
2021/08/18 11:59:29;;;;;;;0.40;0.30;;;22.60;99.90;;;;;;5127499;27;20437;-64
2021/08/18 12:01:56;;;;;;;0.50;0.30;;;22.40;99.90;;;;;;5131893;27;20432;-65
2021/08/18 12:04:25;;;;;;;0.50;0.30;;;22.30;99.90;;;;;;5137649;27;20990;-63
2021/08/18 12:07:11;;;;;;;0.40;0.30;;;22.40;99.90;;;;;;5135280;27;20650;-64
2021/08/18 12:09:40;;;;;;;0.50;0.30;;;22.40;99.90;;;;;;5139127;27;20431;-65
2021/08/18 12:12:08;;;;;;;0.40;0.25;;;22.40;99.90;;;;;;5152274;27;20412;-63
2021/08/18 12:14:40;;;;;;;0.60;0.38;;;22.30;99.90;;;;;;5150765;27;20924;-64
2021/08/18 12:17:08;;;;;;;0.50;0.30;;;22.30;99.90;;;;;;5150039;27;20420;-64
2021/08/18 12:19:39;;;;;;;1.10;0.20;;;22.10;99.90;;;;;;5152221;27;20430;-64
2021/08/18 12:22:13;;;;;;;0.50;0.30;;;21.80;99.90;;;;;;5154045;27;20417;-64
2021/08/18 12:24:43;;;;;;;0.40;0.20;;;21.70;99.90;;;;;;5153912;27;20417;-65
2021/08/18 12:27:14;;;;;;;0.70;0.20;;;21.80;99.90;;;;;;5154591;27;20719;-63
2021/08/18 12:29:41;;;;;;;0.50;0.30;;;22.00;99.90;;;;;;5154812;27;20627;-63
2021/08/18 12:32:13;;;;;;;0.40;0.20;;;22.30;99.90;;;;;;5154273;27;20520;-64
2021/08/18 12:34:47;;;;;;;0.50;0.30;;;22.70;99.90;;;;;;5154841;27;20467;-64
2021/08/18 12:37:18;;;;;;;0.50;0.30;;;23.10;99.90;;;;;;5153877;27;20405;-64
2021/08/18 12:39:52;;;;;;;0.50;0.30;;;23.00;99.90;;;;;;5153629;27;20447;-64
2021/08/18 12:42:25;;;;;;;0.40;0.20;;;22.90;99.90;;;;;;5151971;27;20442;-64
2021/08/18 12:45:10;;;;;;;0.40;0.20;;;23.00;99.90;;;;;;5152533;27;20828;-63
2021/08/18 12:47:39;;;;;;;0.32;0.10;;;23.00;99.90;;;;;;5152968;27;20487;-64
2021/08/18 12:50:07;;;;;;;0.40;0.20;;;22.40;99.90;;;;;;5152086;27;20435;-64
2021/08/18 12:52:34;;;;;;;0.40;0.20;;;22.10;99.90;;;;;;5153209;27;20405;-63
2021/08/18 12:55:03;;;;;;;0.30;0.20;;;22.20;99.90;;;;;;5152843;27;20420;-64
2021/08/18 12:57:31;;;;;;;0.40;0.20;;;22.60;99.90;;;;;;5152888;27;20421;-64